createdAt,value
2022-10-22T00:01:22.938Z,90.09
2022-10-22T00:03:51.472Z,89.22
2022-10-22T00:06:19.936Z,90.97
2022-10-22T00:08:49.854Z,89.22
2022-10-22T00:11:20.118Z,89.86
2022-10-22T00:13:49.417Z,90.30
2022-10-22T00:16:18.121Z,89.60
2022-10-22T00:18:46.594Z,88.81
2022-10-22T00:21:15.103Z,88.44
2022-10-22T00:23:44.146Z,89.61
2022-10-22T00:26:14.227Z,89.67
2022-10-22T00:28:42.762Z,88.79
2022-10-22T00:31:11.889Z,89.13
2022-10-22T00:33:40.329Z,90.11
2022-10-22T00:36:09.720Z,89.78
2022-10-22T00:38:38.169Z,89.63
2022-10-22T00:41:07.139Z,88.59
2022-10-22T00:43:59.929Z,89.45
2022-10-22T00:46:28.794Z,89.62
2022-10-22T00:48:59.336Z,88.74
2022-10-22T00:51:31.156Z,88.68
2022-10-22T00:54:05.827Z,89.84
2022-10-22T00:56:34.296Z,88.67
2022-10-22T00:59:05.281Z,89.89
2022-10-22T01:01:33.720Z,89.99
2022-10-22T01:04:02.167Z,90.07
2022-10-22T01:06:34.174Z,89.91
2022-10-22T01:09:10.595Z,90.45
2022-10-22T01:11:52.521Z,90.58
2022-10-22T01:14:30.838Z,89.65
2022-10-22T01:17:06.021Z,89.69
2022-10-22T01:19:50.997Z,90.08
2022-10-22T01:22:25.531Z,90.58
2022-10-22T01:24:59.871Z,90.89
2022-10-22T01:27:39.720Z,90.89
2022-10-22T01:30:11.839Z,89.71
2022-10-22T01:32:45.693Z,90.21
2022-10-22T01:35:20.179Z,90.34
2022-10-22T01:37:53.114Z,89.52
2022-10-22T01:40:23.469Z,90.60
2022-10-22T01:42:59.254Z,91.11
2022-10-22T01:45:31.308Z,90.24
2022-10-22T01:48:11.898Z,90.08
2022-10-22T01:50:57.040Z,90.75
2022-10-22T01:53:34.287Z,91.21
2022-10-22T01:56:17.979Z,90.99
2022-10-22T01:58:55.565Z,90.24
2022-10-22T02:01:33.259Z,90.77
2022-10-22T02:04:07.628Z,90.83
2022-10-22T02:06:39.343Z,90.17
2022-10-22T02:09:10.563Z,90.91
2022-10-22T02:11:39.641Z,91.05
2022-10-22T02:14:09.629Z,90.87
2022-10-22T02:16:43.775Z,90.90
2022-10-22T02:19:18.138Z,90.23
2022-10-22T02:21:46.983Z,91.18
2022-10-22T02:24:16.300Z,90.71
2022-10-22T02:26:54.304Z,90.33
2022-10-22T02:29:27.629Z,91.94
2022-10-22T02:31:59.604Z,90.42
2022-10-22T02:34:32.886Z,90.38
2022-10-22T02:37:03.365Z,90.23
2022-10-22T02:39:34.054Z,89.34
2022-10-22T02:42:03.634Z,89.61
2022-10-22T02:44:32.178Z,90.23
2022-10-22T02:47:01.981Z,89.92
2022-10-22T02:49:30.385Z,89.59
2022-10-22T02:51:59.656Z,90.39
2022-10-22T02:54:28.197Z,90.74
2022-10-22T02:56:56.645Z,90.20
2022-10-22T02:59:25.116Z,90.30
2022-10-22T03:01:53.695Z,91.41
2022-10-22T03:04:23.459Z,91.54
2022-10-22T03:06:51.790Z,91.62
2022-10-22T03:09:22.704Z,92.42
2022-10-22T03:11:53.465Z,92.55
2022-10-22T03:14:22.112Z,92.33
2022-10-22T03:16:50.561Z,92.24
2022-10-22T03:19:19.125Z,91.66
2022-10-22T03:21:51.640Z,92.64
2022-10-22T03:24:23.432Z,92.44
2022-10-22T03:26:53.704Z,92.40
2022-10-22T03:29:24.656Z,91.56
2022-10-22T03:31:53.409Z,92.03
2022-10-22T03:34:22.450Z,92.63
2022-10-22T03:36:52.938Z,91.34
2022-10-22T03:39:22.709Z,92.90
2022-10-22T03:41:53.250Z,92.51
2022-10-22T03:44:23.053Z,92.40
2022-10-22T03:46:51.641Z,92.63
2022-10-22T03:49:20.085Z,91.25
2022-10-22T03:51:48.511Z,91.17
2022-10-22T03:54:18.645Z,90.63
2022-10-22T03:56:47.052Z,91.27
2022-10-22T03:59:15.601Z,91.10
2022-10-22T04:01:44.132Z,90.78
2022-10-22T04:04:12.556Z,91.39
2022-10-22T04:06:40.982Z,91.86
2022-10-22T04:09:09.473Z,90.85
2022-10-22T04:11:39.308Z,91.15
2022-10-22T04:14:07.972Z,91.57
2022-10-22T04:16:36.430Z,91.36
2022-10-22T04:19:04.875Z,91.09
2022-10-22T04:21:33.763Z,91.07
2022-10-22T04:24:02.579Z,91.34
2022-10-22T04:26:31.045Z,91.10
2022-10-22T04:29:00.881Z,90.75
2022-10-22T04:31:29.147Z,91.08
2022-10-22T04:34:00.863Z,90.74
2022-10-22T04:36:30.149Z,90.47
2022-10-22T04:39:00.740Z,91.16
2022-10-22T04:41:31.459Z,90.71
2022-10-22T04:44:01.652Z,90.17
2022-10-22T04:46:31.920Z,89.51
2022-10-22T04:49:00.627Z,89.40
2022-10-22T04:51:29.123Z,89.35
2022-10-22T04:53:57.722Z,89.89
2022-10-22T04:56:28.773Z,89.93
2022-10-22T04:58:59.325Z,89.57
2022-10-22T05:01:31.159Z,89.99
2022-10-22T05:04:01.491Z,89.73
2022-10-22T05:06:31.210Z,90.33
2022-10-22T05:09:01.414Z,89.79
2022-10-22T05:11:31.830Z,90.13
2022-10-22T05:14:01.675Z,90.40
2022-10-22T05:16:32.032Z,90.53
2022-10-22T05:19:01.965Z,90.96
2022-10-22T05:21:30.488Z,91.19
2022-10-22T05:24:00.562Z,90.50
2022-10-22T05:26:29.978Z,89.95
2022-10-22T05:28:58.473Z,90.54
2022-10-22T05:31:28.722Z,90.20
2022-10-22T05:33:58.640Z,90.60
2022-10-22T05:36:28.049Z,89.76
2022-10-22T05:38:57.896Z,90.55
2022-10-22T05:41:26.764Z,90.90
2022-10-22T05:43:56.373Z,91.12
2022-10-22T05:46:26.507Z,90.49
2022-10-22T05:48:56.705Z,91.39
2022-10-22T05:51:27.135Z,91.64
2022-10-22T05:53:57.342Z,91.92
2022-10-22T05:56:26.644Z,91.49
2022-10-22T05:58:55.408Z,91.95
2022-10-22T06:01:27.307Z,90.35
2022-10-22T06:03:57.532Z,90.85
2022-10-22T06:06:31.570Z,90.71
2022-10-22T06:09:03.988Z,91.60
2022-10-22T06:11:35.067Z,89.44
2022-10-22T06:14:03.906Z,90.38
2022-10-22T06:16:32.951Z,91.39
2022-10-22T06:19:01.914Z,91.64
2022-10-22T06:21:32.420Z,91.25
2022-10-22T06:24:01.977Z,91.16
2022-10-22T06:26:31.202Z,90.84
2022-10-22T06:29:00.148Z,90.90
2022-10-22T06:31:29.554Z,91.47
2022-10-22T06:33:58.329Z,90.41
2022-10-22T06:36:26.810Z,91.60
2022-10-22T06:38:57.645Z,90.99
2022-10-22T06:41:28.721Z,91.29
2022-10-22T06:43:58.713Z,90.61
2022-10-22T06:46:27.870Z,91.28
2022-10-22T06:49:00.252Z,91.11
2022-10-22T06:51:29.291Z,91.13
2022-10-22T06:53:59.778Z,91.82
2022-10-22T06:56:29.425Z,92.29
2022-10-22T06:58:59.314Z,91.30
2022-10-22T07:01:30.025Z,90.77
2022-10-22T07:03:59.033Z,90.18
2022-10-22T07:06:29.698Z,90.68
2022-10-22T07:09:00.916Z,91.23
2022-10-22T07:11:31.812Z,90.04
2022-10-22T07:14:01.120Z,91.61
2022-10-22T07:16:32.185Z,89.08
2022-10-22T07:19:01.518Z,88.34
2022-10-22T07:21:30.885Z,89.17
2022-10-22T07:24:00.836Z,89.60
2022-10-22T07:26:31.013Z,88.92
2022-10-22T07:29:00.322Z,88.85
2022-10-22T07:31:29.270Z,88.31
2022-10-22T07:33:58.210Z,88.94
2022-10-22T07:36:26.901Z,89.20
2022-10-22T07:38:58.113Z,88.38
2022-10-22T07:41:29.611Z,89.18
2022-10-22T07:43:58.683Z,88.41
2022-10-22T07:46:27.549Z,87.56
2022-10-22T07:48:56.106Z,86.75
2022-10-22T07:51:24.814Z,86.84
2022-10-22T07:53:53.343Z,87.13
2022-10-22T07:56:21.832Z,86.61
2022-10-22T07:58:51.722Z,86.80
2022-10-22T08:01:20.219Z,86.64
2022-10-22T08:03:48.846Z,83.88
2022-10-22T08:06:17.674Z,84.13
2022-10-22T08:08:46.741Z,82.85
2022-10-22T08:11:15.489Z,83.33
2022-10-22T08:13:45.600Z,81.97
2022-10-22T08:16:16.332Z,81.31
2022-10-22T08:18:44.860Z,81.98
2022-10-22T08:21:13.923Z,81.72
2022-10-22T08:23:42.423Z,80.24
2022-10-22T08:26:11.605Z,77.14
2022-10-22T08:28:40.068Z,77.23
2022-10-22T08:31:09.302Z,76.98
2022-10-22T08:33:39.690Z,76.65
2022-10-22T08:36:09.335Z,76.82
2022-10-22T08:38:37.646Z,77.29
2022-10-22T08:41:13.077Z,75.30
2022-10-22T08:44:18.741Z,75.68
2022-10-22T08:47:00.921Z,74.10
2022-10-22T08:49:37.183Z,70.64
2022-10-22T08:52:13.529Z,71.48
2022-10-22T08:54:50.537Z,72.73
2022-10-22T08:57:44.935Z,69.19
2022-10-22T09:00:18.762Z,68.22
2022-10-22T09:02:59.997Z,69.90
2022-10-22T09:05:44.522Z,68.75
2022-10-22T09:08:14.932Z,68.46
2022-10-22T09:10:49.209Z,68.04
2022-10-22T09:13:21.345Z,64.99
2022-10-22T09:15:53.809Z,66.36
2022-10-22T09:18:37.107Z,65.54
2022-10-22T09:21:20.130Z,66.45
2022-10-22T09:23:59.868Z,66.39
2022-10-22T09:26:28.440Z,66.35
2022-10-22T09:29:00.749Z,64.55
2022-10-22T09:31:32.009Z,65.47
2022-10-22T09:34:06.034Z,65.36
2022-10-22T09:36:36.390Z,65.71
2022-10-22T09:39:07.835Z,64.40
2022-10-22T09:41:36.374Z,63.68
2022-10-22T09:44:08.284Z,64.95
2022-10-22T09:46:43.933Z,65.27
2022-10-22T09:49:15.545Z,63.68
2022-10-22T09:51:52.134Z,63.49
2022-10-22T09:54:22.394Z,63.98
2022-10-22T09:56:59.104Z,61.30
2022-10-22T09:59:30.366Z,60.33
2022-10-22T10:02:13.553Z,60.87
2022-10-22T10:04:49.895Z,60.47
2022-10-22T10:07:21.346Z,60.64
2022-10-22T10:09:51.403Z,59.97
2022-10-22T10:12:31.750Z,61.86
2022-10-22T10:15:09.045Z,62.01
2022-10-22T10:17:43.673Z,60.56
2022-10-22T10:20:24.836Z,59.88
2022-10-22T10:23:04.514Z,59.73
2022-10-22T10:25:42.402Z,58.28
2022-10-22T10:28:22.385Z,57.33
2022-10-22T10:30:58.168Z,59.39
2022-10-22T10:33:40.037Z,58.37
2022-10-22T10:36:16.969Z,57.06
2022-10-22T10:38:57.246Z,57.15
2022-10-22T10:41:35.728Z,57.65
2022-10-22T10:44:27.351Z,57.75
2022-10-22T10:47:05.611Z,57.81
2022-10-22T10:49:36.410Z,57.08
2022-10-22T10:52:18.816Z,56.55
2022-10-22T10:55:02.348Z,56.00
2022-10-22T10:57:41.066Z,55.91
2022-10-22T11:00:12.833Z,55.95
2022-10-22T11:03:09.578Z,54.95
2022-10-22T11:05:45.107Z,55.26
2022-10-22T11:08:16.081Z,52.50
2022-10-22T11:10:48.397Z,52.67
2022-10-22T11:13:25.043Z,55.22
2022-10-22T11:16:00.396Z,55.12
2022-10-22T11:18:34.882Z,53.25
2022-10-22T11:21:18.216Z,54.33
2022-10-22T11:23:50.917Z,53.89
2022-10-22T11:26:30.595Z,53.69
2022-10-22T11:29:01.157Z,54.36
2022-10-22T11:31:32.653Z,55.21
2022-10-22T11:34:32.043Z,56.19
2022-10-22T11:36:58.790Z,54.40
2022-10-22T11:39:39.762Z,56.08
2022-10-22T11:42:12.167Z,52.89
2022-10-22T11:44:48.924Z,52.17
2022-10-22T11:47:20.740Z,52.74
2022-10-22T11:49:58.836Z,53.76
2022-10-22T11:52:39.669Z,53.58
2022-10-22T11:55:30.044Z,56.84
2022-10-22T11:58:00.764Z,55.37
2022-10-22T12:00:36.474Z,54.94
2022-10-22T12:03:06.005Z,51.75
2022-10-22T12:05:36.324Z,51.58
2022-10-22T12:08:26.082Z,50.88
2022-10-22T12:11:16.309Z,51.72
2022-10-22T12:14:02.893Z,51.39
2022-10-22T12:16:55.134Z,52.22
2022-10-22T12:19:33.346Z,53.41
2022-10-22T12:22:12.826Z,51.57
2022-10-22T12:24:44.521Z,52.90
2022-10-22T12:27:22.494Z,52.02
2022-10-22T12:29:57.484Z,50.35
2022-10-22T12:32:34.776Z,51.49
2022-10-22T12:35:06.872Z,51.57
2022-10-22T12:37:37.015Z,52.91
2022-10-22T12:40:17.769Z,49.56
2022-10-22T12:42:51.109Z,49.55
2022-10-22T12:45:21.595Z,52.09
2022-10-22T12:47:52.429Z,52.12
2022-10-22T12:50:26.499Z,49.90
2022-10-22T12:52:55.970Z,51.47
2022-10-22T12:55:26.818Z,49.90
2022-10-22T12:57:55.444Z,51.03
2022-10-22T13:00:28.268Z,51.61
2022-10-22T13:03:00.336Z,49.85
2022-10-22T13:05:38.681Z,52.42
2022-10-22T13:08:11.718Z,50.64
2022-10-22T13:10:41.960Z,50.95
2022-10-22T13:13:31.548Z,51.39
2022-10-22T13:16:19.361Z,50.42
2022-10-22T13:18:49.216Z,47.95
2022-10-22T13:21:33.628Z,47.71
2022-10-22T13:24:03.958Z,47.60
2022-10-22T13:26:35.380Z,48.67
2022-10-22T13:29:10.919Z,49.64
2022-10-22T13:31:45.616Z,49.63
2022-10-22T13:34:18.207Z,51.76
2022-10-22T13:36:46.674Z,49.68
2022-10-22T13:39:18.611Z,49.54
2022-10-22T13:41:47.199Z,51.97
2022-10-22T13:44:15.615Z,54.74
2022-10-22T13:46:46.406Z,48.32
2022-10-22T13:49:17.617Z,50.48
2022-10-22T13:51:46.590Z,53.02
2022-10-22T13:54:17.856Z,52.06
2022-10-22T13:56:46.717Z,48.05
2022-10-22T13:59:17.241Z,52.75
2022-10-22T14:01:49.820Z,51.82
2022-10-22T14:04:18.418Z,48.70
2022-10-22T14:06:46.931Z,49.90
2022-10-22T14:09:16.819Z,53.50
2022-10-22T14:11:45.337Z,51.17
2022-10-22T14:14:17.062Z,50.78
2022-10-22T14:16:45.774Z,48.51
2022-10-22T14:19:17.826Z,46.29
2022-10-22T14:21:47.001Z,47.76
2022-10-22T14:24:15.546Z,46.54
2022-10-22T14:26:44.016Z,47.64
2022-10-22T14:29:12.475Z,48.29
2022-10-22T14:31:41.847Z,48.48
2022-10-22T14:34:12.171Z,46.75
2022-10-22T14:36:43.969Z,48.37
2022-10-22T14:39:12.898Z,48.16
2022-10-22T14:41:42.159Z,46.92
2022-10-22T14:44:13.972Z,47.68
2022-10-22T14:46:44.145Z,47.67
2022-10-22T14:49:12.814Z,53.01
2022-10-22T14:51:42.834Z,53.21
2022-10-22T14:54:11.367Z,51.04
2022-10-22T14:56:39.807Z,50.79
2022-10-22T14:59:08.302Z,55.12
2022-10-22T15:01:36.829Z,56.26
2022-10-22T15:04:05.462Z,52.40
2022-10-22T15:06:33.900Z,52.50
2022-10-22T15:09:04.322Z,49.19
2022-10-22T15:11:32.846Z,53.02
2022-10-22T15:14:01.399Z,52.07
2022-10-22T15:16:29.962Z,51.22
2022-10-22T15:18:59.738Z,50.08
2022-10-22T15:21:28.493Z,54.57
2022-10-22T15:23:57.001Z,55.54
2022-10-22T15:26:27.824Z,57.47
2022-10-22T15:28:56.301Z,58.01
2022-10-22T15:31:44.492Z,59.71
2022-10-22T15:34:12.991Z,55.87
2022-10-22T15:36:41.483Z,53.81
2022-10-22T15:39:10.945Z,55.29
2022-10-22T15:41:40.866Z,59.23
2022-10-22T15:44:09.760Z,66.43
2022-10-22T15:46:38.317Z,61.75
2022-10-22T15:49:06.804Z,60.96
2022-10-22T15:51:35.316Z,63.32
2022-10-22T15:54:09.220Z,62.20
2022-10-22T15:56:39.971Z,59.69
2022-10-22T15:59:08.547Z,60.91
2022-10-22T16:01:37.163Z,62.10
2022-10-22T16:04:06.724Z,61.96
2022-10-22T16:06:36.567Z,64.35
2022-10-22T16:09:08.171Z,64.57
2022-10-22T16:11:37.264Z,65.96
2022-10-22T16:14:07.590Z,67.35
2022-10-22T16:16:39.710Z,66.55
2022-10-22T16:19:08.230Z,68.58
2022-10-22T16:21:36.634Z,67.47
2022-10-22T16:24:06.548Z,68.54
2022-10-22T16:26:35.793Z,68.89
2022-10-22T16:29:05.333Z,68.76
2022-10-22T16:31:35.196Z,70.33
2022-10-22T16:34:03.851Z,70.01
2022-10-22T16:36:32.386Z,70.88
2022-10-22T16:39:00.814Z,70.33
2022-10-22T16:41:34.956Z,70.92
2022-10-22T16:44:05.197Z,69.48
2022-10-22T16:46:38.192Z,71.96
2022-10-22T16:49:07.872Z,72.43
2022-10-22T16:51:36.496Z,71.76
2022-10-22T16:54:08.194Z,72.82
2022-10-22T16:56:39.938Z,72.58
2022-10-22T16:59:08.662Z,72.93
2022-10-22T17:01:41.166Z,73.21
2022-10-22T17:04:10.648Z,74.36
2022-10-22T17:06:39.088Z,74.32
2022-10-22T17:09:07.731Z,74.74
2022-10-22T17:11:39.130Z,74.30
2022-10-22T17:14:10.595Z,74.67
2022-10-22T17:16:40.410Z,74.37
2022-10-22T17:19:09.000Z,74.46
2022-10-22T17:21:37.456Z,74.97
2022-10-22T17:24:06.016Z,75.15
2022-10-22T17:26:34.617Z,75.58
2022-10-22T17:29:03.253Z,75.56
2022-10-22T17:31:35.382Z,76.53
2022-10-22T17:34:07.495Z,75.94
2022-10-22T17:36:36.730Z,76.12
2022-10-22T17:39:07.842Z,76.23
2022-10-22T17:41:38.599Z,76.13
2022-10-22T17:44:09.830Z,76.38
2022-10-22T17:46:38.917Z,77.25
2022-10-22T17:49:15.920Z,77.19
2022-10-22T17:51:44.376Z,76.56
2022-10-22T17:54:14.494Z,76.92
2022-10-22T17:56:43.002Z,76.50
2022-10-22T17:59:13.994Z,77.16
2022-10-22T18:01:45.292Z,78.00
2022-10-22T18:04:18.650Z,78.57
2022-10-22T18:06:47.865Z,77.92
2022-10-22T18:09:18.809Z,77.97
2022-10-22T18:11:48.863Z,78.29
2022-10-22T18:14:18.314Z,79.09
2022-10-22T18:16:47.385Z,79.66
2022-10-22T18:19:19.190Z,79.16
2022-10-22T18:21:47.841Z,79.05
2022-10-22T18:24:17.370Z,79.75
2022-10-22T18:26:46.037Z,79.36
2022-10-22T18:29:16.959Z,80.19
2022-10-22T18:31:46.151Z,79.77
2022-10-22T18:34:16.629Z,80.05
2022-10-22T18:36:48.812Z,80.04
2022-10-22T18:39:17.125Z,80.60
2022-10-22T18:41:45.440Z,80.38
2022-10-22T18:44:15.277Z,81.07
2022-10-22T18:46:43.817Z,81.05
2022-10-22T18:49:18.086Z,82.08
2022-10-22T18:51:52.578Z,81.45
2022-10-22T18:54:23.869Z,81.45
2022-10-22T18:56:53.821Z,81.22
2022-10-22T18:59:23.863Z,81.67
2022-10-22T19:01:53.779Z,82.02
2022-10-22T19:04:22.576Z,81.68
2022-10-22T19:06:52.437Z,82.70
2022-10-22T19:09:20.960Z,81.17
2022-10-22T19:11:50.240Z,82.20
2022-10-22T19:14:20.414Z,82.32
2022-10-22T19:16:49.421Z,81.82
2022-10-22T19:19:19.712Z,82.90
2022-10-22T19:21:48.575Z,82.37
2022-10-22T19:24:20.539Z,82.88
2022-10-22T19:26:50.346Z,83.76
2022-10-22T19:29:19.529Z,83.46
2022-10-22T19:31:50.835Z,83.71
2022-10-22T19:34:20.417Z,83.37
2022-10-22T19:36:51.509Z,83.61
2022-10-22T19:39:21.716Z,83.23
2022-10-22T19:41:50.141Z,84.12
2022-10-22T19:44:19.703Z,84.55
2022-10-22T19:46:48.120Z,83.71
2022-10-22T19:49:19.100Z,84.38
2022-10-22T19:51:50.497Z,85.00
2022-10-22T19:54:20.319Z,85.32
2022-10-22T19:56:50.967Z,84.84
2022-10-22T19:59:20.558Z,84.46
2022-10-22T20:01:49.234Z,84.46
2022-10-22T20:04:18.796Z,84.25
2022-10-22T20:06:47.421Z,85.29
2022-10-22T20:09:15.911Z,85.68
2022-10-22T20:11:44.604Z,85.45
2022-10-22T20:14:14.991Z,84.76
2022-10-22T20:16:43.742Z,84.80
2022-10-22T20:19:15.957Z,85.62
2022-10-22T20:21:45.897Z,85.89
2022-10-22T20:24:14.396Z,84.74
2022-10-22T20:26:42.871Z,84.66
2022-10-22T20:29:11.508Z,84.42
2022-10-22T20:31:41.391Z,85.62
2022-10-22T20:34:10.216Z,84.97
2022-10-22T20:36:38.714Z,85.54
2022-10-22T20:39:09.256Z,85.37
2022-10-22T20:41:40.339Z,84.72
2022-10-22T20:44:13.489Z,85.78
2022-10-22T20:46:44.171Z,85.66
2022-10-22T20:49:15.216Z,85.57
2022-10-22T20:51:44.222Z,86.19
2022-10-22T20:54:14.688Z,85.34
2022-10-22T20:56:44.165Z,85.01
2022-10-22T20:59:12.907Z,84.99
2022-10-22T21:01:44.364Z,85.26
2022-10-22T21:04:12.824Z,85.37
2022-10-22T21:06:42.944Z,85.69
2022-10-22T21:09:12.988Z,86.01
2022-10-22T21:11:43.071Z,85.85
2022-10-22T21:14:13.133Z,86.26
2022-10-22T21:16:43.444Z,86.07
2022-10-22T21:19:12.615Z,85.58
2022-10-22T21:21:41.013Z,86.68
2022-10-22T21:24:09.945Z,85.72
2022-10-22T21:26:38.965Z,86.38
2022-10-22T21:29:07.699Z,86.35
2022-10-22T21:31:36.631Z,86.30
2022-10-22T21:34:06.460Z,86.41
2022-10-22T21:36:34.753Z,85.37
2022-10-22T21:39:03.285Z,85.60
2022-10-22T21:41:31.779Z,85.79
2022-10-22T21:44:00.827Z,85.47
2022-10-22T21:46:29.643Z,85.66
2022-10-22T21:49:01.357Z,86.28
2022-10-22T21:51:32.640Z,86.00
2022-10-22T21:54:01.734Z,85.48
2022-10-22T21:56:33.080Z,85.16
2022-10-22T21:59:01.617Z,85.60
2022-10-22T22:01:30.437Z,85.43
2022-10-22T22:03:59.518Z,85.56
2022-10-22T22:06:33.437Z,85.96
2022-10-22T22:09:04.387Z,84.82
2022-10-22T22:11:33.405Z,84.85
2022-10-22T22:14:01.847Z,86.03
2022-10-22T22:16:33.233Z,85.73
2022-10-22T22:21:35.905Z,85.81
2022-10-22T22:24:04.865Z,84.93
2022-10-22T22:26:33.762Z,85.04
2022-10-22T22:29:02.366Z,85.39
2022-10-22T22:31:32.908Z,84.75
2022-10-22T22:34:02.753Z,85.33
2022-10-22T22:36:35.397Z,85.42
2022-10-22T22:39:05.026Z,84.87
2022-10-22T22:41:33.569Z,84.66
2022-10-22T22:44:02.425Z,84.72
2022-10-22T22:46:30.928Z,85.08
2022-10-22T22:48:59.364Z,85.13
2022-10-22T22:51:27.825Z,84.96
2022-10-22T22:54:00.095Z,85.03
2022-10-22T22:56:30.376Z,85.29
2022-10-22T22:58:59.366Z,84.75
2022-10-22T23:01:30.420Z,85.23
2022-10-22T23:04:00.502Z,85.40
2022-10-22T23:06:30.544Z,85.21
2022-10-22T23:09:00.766Z,85.18
2022-10-22T23:11:29.869Z,84.61
2022-10-22T23:13:59.669Z,84.63
2022-10-22T23:16:28.757Z,84.25
2022-10-22T23:18:57.580Z,84.69
2022-10-22T23:21:30.001Z,84.36
2022-10-22T23:24:01.432Z,84.31
2022-10-22T23:26:31.311Z,84.07
2022-10-22T23:29:01.030Z,84.79
2022-10-22T23:31:29.505Z,84.69
2022-10-22T23:33:58.218Z,84.35
2022-10-22T23:36:27.132Z,84.29
2022-10-22T23:38:55.841Z,84.76
2022-10-22T23:41:25.628Z,84.02
2022-10-22T23:43:53.985Z,84.31
2022-10-22T23:46:22.389Z,84.81
2022-10-22T23:48:50.881Z,84.69
2022-10-22T23:51:19.281Z,84.73
2022-10-22T23:53:48.655Z,84.06
2022-10-22T23:56:19.024Z,84.91
2022-10-22T23:58:51.416Z,83.90
